sensor_id;sensor_type;location;lat;lon;timestamp;temperature;humidity
71184;DHT22;58887;51.980;4.464;2022-08-21T00:01:19;18.71;75.36
71184;DHT22;58887;51.980;4.464;2022-08-21T00:03:46;18.71;75.40
71184;DHT22;58887;51.980;4.464;2022-08-21T00:06:12;18.70;75.65
71184;DHT22;58887;51.980;4.464;2022-08-21T00:08:37;18.74;75.60
71184;DHT22;58887;51.980;4.464;2022-08-21T00:11:04;18.73;75.57
71184;DHT22;58887;51.980;4.464;2022-08-21T00:13:30;18.73;75.46
71184;DHT22;58887;51.980;4.464;2022-08-21T00:15:56;18.66;75.71
71184;DHT22;58887;51.980;4.464;2022-08-21T00:18:22;18.70;75.54
71184;DHT22;58887;51.980;4.464;2022-08-21T00:20:48;18.70;75.43
71184;DHT22;58887;51.980;4.464;2022-08-21T00:23:14;18.69;75.46
71184;DHT22;58887;51.980;4.464;2022-08-21T00:25:42;18.71;75.21
71184;DHT22;58887;51.980;4.464;2022-08-21T00:28:08;18.64;75.34
71184;DHT22;58887;51.980;4.464;2022-08-21T00:30:34;18.60;75.18
71184;DHT22;58887;51.980;4.464;2022-08-21T00:33:02;18.57;74.95
71184;DHT22;58887;51.980;4.464;2022-08-21T00:35:35;18.61;74.34
71184;DHT22;58887;51.980;4.464;2022-08-21T00:38:02;18.60;73.94
71184;DHT22;58887;51.980;4.464;2022-08-21T00:40:36;18.49;74.11
71184;DHT22;58887;51.980;4.464;2022-08-21T00:43:04;18.53;73.93
71184;DHT22;58887;51.980;4.464;2022-08-21T00:45:31;18.63;73.00
71184;DHT22;58887;51.980;4.464;2022-08-21T00:47:57;18.61;72.76
71184;DHT22;58887;51.980;4.464;2022-08-21T00:50:26;18.59;72.83
71184;DHT22;58887;51.980;4.464;2022-08-21T00:52:53;18.50;73.16
71184;DHT22;58887;51.980;4.464;2022-08-21T00:55:21;18.50;73.09
71184;DHT22;58887;51.980;4.464;2022-08-21T00:57:52;18.55;73.01
71184;DHT22;58887;51.980;4.464;2022-08-21T01:00:24;18.57;72.89
71184;DHT22;58887;51.980;4.464;2022-08-21T01:02:53;18.50;73.06
71184;DHT22;58887;51.980;4.464;2022-08-21T01:05:18;18.56;73.02
71184;DHT22;58887;51.980;4.464;2022-08-21T01:07:44;18.59;72.76
71184;DHT22;58887;51.980;4.464;2022-08-21T01:10:12;18.56;73.12
71184;DHT22;58887;51.980;4.464;2022-08-21T01:12:40;18.49;73.18
71184;DHT22;58887;51.980;4.464;2022-08-21T01:15:07;18.39;73.69
71184;DHT22;58887;51.980;4.464;2022-08-21T01:17:34;18.43;73.51
71184;DHT22;58887;51.980;4.464;2022-08-21T01:20:05;18.43;73.52
71184;DHT22;58887;51.980;4.464;2022-08-21T01:22:31;18.45;73.47
71184;DHT22;58887;51.980;4.464;2022-08-21T01:24:56;18.45;73.49
71184;DHT22;58887;51.980;4.464;2022-08-21T01:27:22;18.45;73.65
71184;DHT22;58887;51.980;4.464;2022-08-21T01:30:11;18.45;73.43
71184;DHT22;58887;51.980;4.464;2022-08-21T01:32:37;18.36;73.95
71184;DHT22;58887;51.980;4.464;2022-08-21T01:35:04;18.32;74.05
71184;DHT22;58887;51.980;4.464;2022-08-21T01:37:30;18.26;74.29
71184;DHT22;58887;51.980;4.464;2022-08-21T01:39:55;18.22;74.23
71184;DHT22;58887;51.980;4.464;2022-08-21T01:42:20;18.11;74.75
71184;DHT22;58887;51.980;4.464;2022-08-21T01:44:46;18.06;74.96
71184;DHT22;58887;51.980;4.464;2022-08-21T01:47:14;17.97;75.61
71184;DHT22;58887;51.980;4.464;2022-08-21T01:49:41;17.84;75.68
71184;DHT22;58887;51.980;4.464;2022-08-21T01:52:07;17.71;75.63
71184;DHT22;58887;51.980;4.464;2022-08-21T01:54:33;17.64;76.41
71184;DHT22;58887;51.980;4.464;2022-08-21T01:57:00;17.60;76.85
71184;DHT22;58887;51.980;4.464;2022-08-21T01:59:26;17.50;77.34
71184;DHT22;58887;51.980;4.464;2022-08-21T02:01:52;17.50;76.83
71184;DHT22;58887;51.980;4.464;2022-08-21T02:04:20;17.49;77.08
71184;DHT22;58887;51.980;4.464;2022-08-21T02:06:46;17.44;77.78
71184;DHT22;58887;51.980;4.464;2022-08-21T02:09:12;17.39;77.98
71184;DHT22;58887;51.980;4.464;2022-08-21T02:11:38;17.40;77.69
71184;DHT22;58887;51.980;4.464;2022-08-21T02:14:12;17.43;77.40
71184;DHT22;58887;51.980;4.464;2022-08-21T02:16:41;17.39;77.92
71184;DHT22;58887;51.980;4.464;2022-08-21T02:19:07;17.37;77.54
71184;DHT22;58887;51.980;4.464;2022-08-21T02:21:32;17.34;77.59
71184;DHT22;58887;51.980;4.464;2022-08-21T02:23:58;17.40;77.87
71184;DHT22;58887;51.980;4.464;2022-08-21T02:26:24;17.43;77.64
71184;DHT22;58887;51.980;4.464;2022-08-21T02:28:49;17.50;77.83
71184;DHT22;58887;51.980;4.464;2022-08-21T02:31:15;17.49;77.72
71184;DHT22;58887;51.980;4.464;2022-08-21T02:33:41;17.51;77.66
71184;DHT22;58887;51.980;4.464;2022-08-21T02:36:08;17.57;77.40
71184;DHT22;58887;51.980;4.464;2022-08-21T02:38:35;17.55;77.44
71184;DHT22;58887;51.980;4.464;2022-08-21T02:41:11;17.51;77.46
71184;DHT22;58887;51.980;4.464;2022-08-21T02:43:37;17.49;77.84
71184;DHT22;58887;51.980;4.464;2022-08-21T02:46:05;17.40;78.06
71184;DHT22;58887;51.980;4.464;2022-08-21T02:48:33;17.37;78.23
71184;DHT22;58887;51.980;4.464;2022-08-21T02:51:11;17.43;78.22
71184;DHT22;58887;51.980;4.464;2022-08-21T02:53:40;17.49;78.12
71184;DHT22;58887;51.980;4.464;2022-08-21T02:56:07;17.43;77.95
71184;DHT22;58887;51.980;4.464;2022-08-21T02:58:37;17.43;78.08
71184;DHT22;58887;51.980;4.464;2022-08-21T03:01:05;17.47;77.94
71184;DHT22;58887;51.980;4.464;2022-08-21T03:03:35;17.51;77.79
71184;DHT22;58887;51.980;4.464;2022-08-21T03:06:03;17.54;77.40
71184;DHT22;58887;51.980;4.464;2022-08-21T03:08:29;17.44;77.81
71184;DHT22;58887;51.980;4.464;2022-08-21T03:10:54;17.39;77.99
71184;DHT22;58887;51.980;4.464;2022-08-21T03:13:21;17.41;77.99
71184;DHT22;58887;51.980;4.464;2022-08-21T03:15:48;17.34;78.49
71184;DHT22;58887;51.980;4.464;2022-08-21T03:18:14;17.40;78.16
71184;DHT22;58887;51.980;4.464;2022-08-21T03:20:41;17.44;78.00
71184;DHT22;58887;51.980;4.464;2022-08-21T03:23:08;17.39;78.13
71184;DHT22;58887;51.980;4.464;2022-08-21T03:25:35;17.33;78.29
71184;DHT22;58887;51.980;4.464;2022-08-21T03:28:02;17.36;78.17
71184;DHT22;58887;51.980;4.464;2022-08-21T03:30:29;17.33;78.43
71184;DHT22;58887;51.980;4.464;2022-08-21T03:32:59;17.37;78.18
71184;DHT22;58887;51.980;4.464;2022-08-21T03:35:26;17.40;78.13
71184;DHT22;58887;51.980;4.464;2022-08-21T03:37:52;17.36;78.28
71184;DHT22;58887;51.980;4.464;2022-08-21T03:40:19;17.34;78.33
71184;DHT22;58887;51.980;4.464;2022-08-21T03:42:45;17.40;78.18
71184;DHT22;58887;51.980;4.464;2022-08-21T03:45:16;17.36;78.40
71184;DHT22;58887;51.980;4.464;2022-08-21T03:47:57;17.27;78.84
71184;DHT22;58887;51.980;4.464;2022-08-21T03:50:25;17.24;78.93
71184;DHT22;58887;51.980;4.464;2022-08-21T03:52:51;17.30;78.79
71184;DHT22;58887;51.980;4.464;2022-08-21T03:55:16;17.29;78.80
71184;DHT22;58887;51.980;4.464;2022-08-21T03:57:42;17.22;78.90
71184;DHT22;58887;51.980;4.464;2022-08-21T04:00:09;17.22;79.19
71184;DHT22;58887;51.980;4.464;2022-08-21T04:02:37;17.16;79.58
71184;DHT22;58887;51.980;4.464;2022-08-21T04:05:03;17.15;79.49
71184;DHT22;58887;51.980;4.464;2022-08-21T04:07:29;17.06;80.11
71184;DHT22;58887;51.980;4.464;2022-08-21T04:09:54;17.10;80.30
71184;DHT22;58887;51.980;4.464;2022-08-21T04:12:21;17.05;80.57
71184;DHT22;58887;51.980;4.464;2022-08-21T04:14:46;17.16;80.23
71184;DHT22;58887;51.980;4.464;2022-08-21T04:17:12;17.10;80.41
71184;DHT22;58887;51.980;4.464;2022-08-21T04:19:37;17.10;80.52
71184;DHT22;58887;51.980;4.464;2022-08-21T04:22:03;17.09;80.53
71184;DHT22;58887;51.980;4.464;2022-08-21T04:24:29;17.03;80.71
71184;DHT22;58887;51.980;4.464;2022-08-21T04:26:55;17.01;81.10
71184;DHT22;58887;51.980;4.464;2022-08-21T04:29:21;17.06;80.67
71184;DHT22;58887;51.980;4.464;2022-08-21T04:31:46;17.10;80.61
71184;DHT22;58887;51.980;4.464;2022-08-21T04:34:11;17.09;80.55
71184;DHT22;58887;51.980;4.464;2022-08-21T04:36:37;16.98;81.23
71184;DHT22;58887;51.980;4.464;2022-08-21T04:39:03;17.03;80.98
71184;DHT22;58887;51.980;4.464;2022-08-21T04:41:29;17.06;80.94
71184;DHT22;58887;51.980;4.464;2022-08-21T04:43:55;17.10;80.96
71184;DHT22;58887;51.980;4.464;2022-08-21T04:46:22;17.06;81.05
71184;DHT22;58887;51.980;4.464;2022-08-21T04:48:48;17.06;81.02
71184;DHT22;58887;51.980;4.464;2022-08-21T04:51:21;17.05;81.27
71184;DHT22;58887;51.980;4.464;2022-08-21T04:53:55;17.02;81.38
71184;DHT22;58887;51.980;4.464;2022-08-21T04:56:35;17.08;81.49
71184;DHT22;58887;51.980;4.464;2022-08-21T04:59:06;17.09;81.45
71184;DHT22;58887;51.980;4.464;2022-08-21T05:01:37;17.13;81.48
71184;DHT22;58887;51.980;4.464;2022-08-21T05:04:08;17.18;81.34
71184;DHT22;58887;51.980;4.464;2022-08-21T05:06:37;17.22;81.32
71184;DHT22;58887;51.980;4.464;2022-08-21T05:09:05;17.22;81.34
71184;DHT22;58887;51.980;4.464;2022-08-21T05:11:32;17.23;81.50
71184;DHT22;58887;51.980;4.464;2022-08-21T05:13:58;17.19;81.43
71184;DHT22;58887;51.980;4.464;2022-08-21T05:16:24;17.24;81.43
71184;DHT22;58887;51.980;4.464;2022-08-21T05:18:50;17.30;81.51
71184;DHT22;58887;51.980;4.464;2022-08-21T05:21:15;17.27;81.44
71184;DHT22;58887;51.980;4.464;2022-08-21T05:23:41;17.34;81.44
71184;DHT22;58887;51.980;4.464;2022-08-21T05:26:08;17.40;81.16
71184;DHT22;58887;51.980;4.464;2022-08-21T05:28:33;17.47;81.01
71184;DHT22;58887;51.980;4.464;2022-08-21T05:30:59;17.47;81.15
71184;DHT22;58887;51.980;4.464;2022-08-21T05:33:24;17.59;80.84
71184;DHT22;58887;51.980;4.464;2022-08-21T05:35:51;17.61;80.84
71184;DHT22;58887;51.980;4.464;2022-08-21T05:38:18;17.71;80.66
71184;DHT22;58887;51.980;4.464;2022-08-21T05:40:44;17.77;80.51
71184;DHT22;58887;51.980;4.464;2022-08-21T05:43:09;17.75;80.55
71184;DHT22;58887;51.980;4.464;2022-08-21T05:45:35;17.80;80.57
71184;DHT22;58887;51.980;4.464;2022-08-21T05:48:08;17.85;80.45
71184;DHT22;58887;51.980;4.464;2022-08-21T05:50:34;17.95;80.29
71184;DHT22;58887;51.980;4.464;2022-08-21T05:53:00;17.97;80.19
71184;DHT22;58887;51.980;4.464;2022-08-21T05:55:26;18.05;80.03
71184;DHT22;58887;51.980;4.464;2022-08-21T05:57:51;18.01;80.40
71184;DHT22;58887;51.980;4.464;2022-08-21T06:00:17;18.12;80.06
71184;DHT22;58887;51.980;4.464;2022-08-21T06:02:43;18.15;79.80
71184;DHT22;58887;51.980;4.464;2022-08-21T06:05:08;18.11;80.25
71184;DHT22;58887;51.980;4.464;2022-08-21T06:07:34;18.08;80.67
71184;DHT22;58887;51.980;4.464;2022-08-21T06:10:00;18.28;79.92
71184;DHT22;58887;51.980;4.464;2022-08-21T06:12:26;18.33;79.42
71184;DHT22;58887;51.980;4.464;2022-08-21T06:14:51;18.33;79.50
71184;DHT22;58887;51.980;4.464;2022-08-21T06:17:18;18.42;79.51
71184;DHT22;58887;51.980;4.464;2022-08-21T06:19:43;18.49;79.16
71184;DHT22;58887;51.980;4.464;2022-08-21T06:22:09;18.50;79.46
71184;DHT22;58887;51.980;4.464;2022-08-21T06:24:35;18.49;79.40
71184;DHT22;58887;51.980;4.464;2022-08-21T06:27:07;18.50;79.60
71184;DHT22;58887;51.980;4.464;2022-08-21T06:29:34;18.60;79.41
71184;DHT22;58887;51.980;4.464;2022-08-21T06:32:00;18.61;79.46
71184;DHT22;58887;51.980;4.464;2022-08-21T06:34:25;18.73;79.08
71184;DHT22;58887;51.980;4.464;2022-08-21T06:36:51;18.79;79.00
71184;DHT22;58887;51.980;4.464;2022-08-21T06:39:17;18.81;78.84
71184;DHT22;58887;51.980;4.464;2022-08-21T06:41:42;18.90;79.10
71184;DHT22;58887;51.980;4.464;2022-08-21T06:44:08;18.98;78.73
71184;DHT22;58887;51.980;4.464;2022-08-21T06:46:33;19.01;78.46
71184;DHT22;58887;51.980;4.464;2022-08-21T06:48:59;19.22;78.17
71184;DHT22;58887;51.980;4.464;2022-08-21T06:51:25;19.29;78.25
71184;DHT22;58887;51.980;4.464;2022-08-21T06:53:51;19.31;77.57
71184;DHT22;58887;51.980;4.464;2022-08-21T06:56:18;19.41;77.92
71184;DHT22;58887;51.980;4.464;2022-08-21T06:58:43;19.51;77.66
71184;DHT22;58887;51.980;4.464;2022-08-21T07:01:09;19.48;77.15
71184;DHT22;58887;51.980;4.464;2022-08-21T07:03:38;19.35;77.58
71184;DHT22;58887;51.980;4.464;2022-08-21T07:06:06;19.52;77.43
71184;DHT22;58887;51.980;4.464;2022-08-21T07:08:32;19.48;77.50
71184;DHT22;58887;51.980;4.464;2022-08-21T07:11:00;19.69;77.15
71184;DHT22;58887;51.980;4.464;2022-08-21T07:13:27;19.79;77.21
71184;DHT22;58887;51.980;4.464;2022-08-21T07:15:52;19.94;76.30
71184;DHT22;58887;51.980;4.464;2022-08-21T07:18:18;20.00;76.89
71184;DHT22;58887;51.980;4.464;2022-08-21T07:20:44;20.18;76.12
71184;DHT22;58887;51.980;4.464;2022-08-21T07:23:16;20.31;75.78
71184;DHT22;58887;51.980;4.464;2022-08-21T07:25:44;20.44;75.52
71184;DHT22;58887;51.980;4.464;2022-08-21T07:28:09;20.59;75.01
71184;DHT22;58887;51.980;4.464;2022-08-21T07:30:35;20.65;74.42
71184;DHT22;58887;51.980;4.464;2022-08-21T07:33:01;20.65;74.66
71184;DHT22;58887;51.980;4.464;2022-08-21T07:35:26;20.78;73.78
71184;DHT22;58887;51.980;4.464;2022-08-21T07:37:53;20.82;74.14
71184;DHT22;58887;51.980;4.464;2022-08-21T07:40:19;20.94;74.39
71184;DHT22;58887;51.980;4.464;2022-08-21T07:42:46;21.06;73.31
71184;DHT22;58887;51.980;4.464;2022-08-21T07:45:12;21.19;72.88
71184;DHT22;58887;51.980;4.464;2022-08-21T07:47:38;21.25;72.42
71184;DHT22;58887;51.980;4.464;2022-08-21T07:50:06;21.18;72.38
71184;DHT22;58887;51.980;4.464;2022-08-21T07:52:32;21.18;72.56
71184;DHT22;58887;51.980;4.464;2022-08-21T07:54:58;21.35;72.14
71184;DHT22;58887;51.980;4.464;2022-08-21T07:57:24;21.40;72.47
71184;DHT22;58887;51.980;4.464;2022-08-21T07:59:50;21.61;71.56
71184;DHT22;58887;51.980;4.464;2022-08-21T08:02:25;21.90;70.37
71184;DHT22;58887;51.980;4.464;2022-08-21T08:04:51;21.85;69.42
71184;DHT22;58887;51.980;4.464;2022-08-21T08:07:17;21.87;70.04
71184;DHT22;58887;51.980;4.464;2022-08-21T08:09:43;22.11;70.02
71184;DHT22;58887;51.980;4.464;2022-08-21T08:12:09;22.11;68.84
71184;DHT22;58887;51.980;4.464;2022-08-21T08:14:35;22.16;68.55
71184;DHT22;58887;51.980;4.464;2022-08-21T08:17:00;22.29;68.43
71184;DHT22;58887;51.980;4.464;2022-08-21T08:19:27;22.66;67.53
71184;DHT22;58887;51.980;4.464;2022-08-21T08:21:53;22.72;66.56
71184;DHT22;58887;51.980;4.464;2022-08-21T08:24:18;22.69;67.06
71184;DHT22;58887;51.980;4.464;2022-08-21T08:26:44;22.79;66.47
71184;DHT22;58887;51.980;4.464;2022-08-21T08:29:09;22.91;65.80
71184;DHT22;58887;51.980;4.464;2022-08-21T08:31:35;23.11;65.68
71184;DHT22;58887;51.980;4.464;2022-08-21T08:34:00;23.06;64.91
71184;DHT22;58887;51.980;4.464;2022-08-21T08:36:36;22.96;64.81
71184;DHT22;58887;51.980;4.464;2022-08-21T08:39:05;22.74;66.88
71184;DHT22;58887;51.980;4.464;2022-08-21T08:41:32;23.10;65.53
71184;DHT22;58887;51.980;4.464;2022-08-21T08:44:02;22.90;65.18
71184;DHT22;58887;51.980;4.464;2022-08-21T08:46:44;23.27;63.68
71184;DHT22;58887;51.980;4.464;2022-08-21T08:49:35;23.48;63.17
71184;DHT22;58887;51.980;4.464;2022-08-21T08:52:07;23.65;62.27
71184;DHT22;58887;51.980;4.464;2022-08-21T08:54:50;23.66;60.22
71184;DHT22;58887;51.980;4.464;2022-08-21T08:57:20;23.96;60.85
71184;DHT22;58887;51.980;4.464;2022-08-21T08:59:51;23.76;61.85
71184;DHT22;58887;51.980;4.464;2022-08-21T09:02:18;23.99;61.22
71184;DHT22;58887;51.980;4.464;2022-08-21T09:04:47;24.34;59.42
71184;DHT22;58887;51.980;4.464;2022-08-21T09:15:30;24.67;57.67
71184;DHT22;58887;51.980;4.464;2022-08-21T09:24:13;24.63;58.03
71184;DHT22;58887;51.980;4.464;2022-08-21T09:27:04;24.69;57.50
71184;DHT22;58887;51.980;4.464;2022-08-21T09:29:36;24.99;57.18
71184;DHT22;58887;51.980;4.464;2022-08-21T09:32:32;25.65;55.94
71184;DHT22;58887;51.980;4.464;2022-08-21T09:35:13;24.02;58.59
71184;DHT22;58887;51.980;4.464;2022-08-21T09:38:04;23.76;59.24
71184;DHT22;58887;51.980;4.464;2022-08-21T09:43:21;24.85;55.29
71184;DHT22;58887;51.980;4.464;2022-08-21T09:46:19;25.46;53.41
71184;DHT22;58887;51.980;4.464;2022-08-21T09:48:49;24.63;56.91
71184;DHT22;58887;51.980;4.464;2022-08-21T09:51:25;23.83;59.99
71184;DHT22;58887;51.980;4.464;2022-08-21T09:54:10;23.51;61.17
71184;DHT22;58887;51.980;4.464;2022-08-21T09:56:51;24.23;59.69
71184;DHT22;58887;51.980;4.464;2022-08-21T09:59:36;24.03;59.93
71184;DHT22;58887;51.980;4.464;2022-08-21T10:07:41;24.96;55.78
71184;DHT22;58887;51.980;4.464;2022-08-21T10:10:09;25.71;53.15
71184;DHT22;58887;51.980;4.464;2022-08-21T10:13:12;26.85;50.56
71184;DHT22;58887;51.980;4.464;2022-08-21T10:25:08;25.94;50.83
71184;DHT22;58887;51.980;4.464;2022-08-21T10:27:37;25.23;53.00
71184;DHT22;58887;51.980;4.464;2022-08-21T10:33:43;24.16;55.09
71184;DHT22;58887;51.980;4.464;2022-08-21T10:36:21;24.71;54.12
71184;DHT22;58887;51.980;4.464;2022-08-21T10:41:58;25.43;52.23
71184;DHT22;58887;51.980;4.464;2022-08-21T10:53:54;26.07;50.12
71184;DHT22;58887;51.980;4.464;2022-08-21T10:56:19;25.05;52.81
71184;DHT22;58887;51.980;4.464;2022-08-21T11:02:08;25.09;51.57
71184;DHT22;58887;51.980;4.464;2022-08-21T11:05:00;25.87;50.53
71184;DHT22;58887;51.980;4.464;2022-08-21T11:07:43;25.60;51.69
71184;DHT22;58887;51.980;4.464;2022-08-21T11:10:27;25.86;51.03
71184;DHT22;58887;51.980;4.464;2022-08-21T11:13:03;27.20;47.45
71184;DHT22;58887;51.980;4.464;2022-08-21T11:15:43;26.87;46.76
71184;DHT22;58887;51.980;4.464;2022-08-21T11:18:29;24.91;50.82
71184;DHT22;58887;51.980;4.464;2022-08-21T11:26:43;26.26;47.45
71184;DHT22;58887;51.980;4.464;2022-08-21T11:29:22;25.11;50.23
71184;DHT22;58887;51.980;4.464;2022-08-21T11:40:41;24.36;50.78
71184;DHT22;58887;51.980;4.464;2022-08-21T11:43:43;25.47;48.51
71184;DHT22;58887;51.980;4.464;2022-08-21T11:46:31;26.69;46.44
71184;DHT22;58887;51.980;4.464;2022-08-21T11:49:36;27.35;44.14
71184;DHT22;58887;51.980;4.464;2022-08-21T11:52:24;26.53;44.60
71184;DHT22;58887;51.980;4.464;2022-08-21T11:57:52;27.45;41.04
71184;DHT22;58887;51.980;4.464;2022-08-21T12:00:30;27.88;40.26
71184;DHT22;58887;51.980;4.464;2022-08-21T12:03:17;28.46;39.48
71184;DHT22;58887;51.980;4.464;2022-08-21T12:06:04;29.12;41.34
71184;DHT22;58887;51.980;4.464;2022-08-21T12:08:42;30.20;38.78
71184;DHT22;58887;51.980;4.464;2022-08-21T12:11:22;29.67;38.80
71184;DHT22;58887;51.980;4.464;2022-08-21T12:13:59;28.90;41.06
71184;DHT22;58887;51.980;4.464;2022-08-21T12:16:43;28.77;39.19
71184;DHT22;58887;51.980;4.464;2022-08-21T12:19:27;27.88;39.75
71184;DHT22;58887;51.980;4.464;2022-08-21T12:29:33;28.35;42.24
71184;DHT22;58887;51.980;4.464;2022-08-21T12:34:40;26.89;43.37
71184;DHT22;58887;51.980;4.464;2022-08-21T12:40:23;27.07;44.00
71184;DHT22;58887;51.980;4.464;2022-08-21T12:42:55;27.34;45.14
71184;DHT22;58887;51.980;4.464;2022-08-21T12:45:34;28.35;42.06
71184;DHT22;58887;51.980;4.464;2022-08-21T12:48:41;30.17;38.64
71184;DHT22;58887;51.980;4.464;2022-08-21T12:53:56;29.59;39.73
71184;DHT22;58887;51.980;4.464;2022-08-21T12:56:28;28.33;41.59
71184;DHT22;58887;51.980;4.464;2022-08-21T12:58:56;27.80;42.28
71184;DHT22;58887;51.980;4.464;2022-08-21T13:03:58;28.08;41.40
71184;DHT22;58887;51.980;4.464;2022-08-21T13:06:32;27.88;43.27
71184;DHT22;58887;51.980;4.464;2022-08-21T13:09:05;29.59;40.34
71184;DHT22;58887;51.980;4.464;2022-08-21T13:11:32;30.64;38.59
71184;DHT22;58887;51.980;4.464;2022-08-21T13:14:01;30.76;36.69
71184;DHT22;58887;51.980;4.464;2022-08-21T13:16:28;30.16;37.16
71184;DHT22;58887;51.980;4.464;2022-08-21T13:19:02;29.86;37.98
71184;DHT22;58887;51.980;4.464;2022-08-21T13:21:34;29.33;38.71
71184;DHT22;58887;51.980;4.464;2022-08-21T13:24:15;29.28;39.11
71184;DHT22;58887;51.980;4.464;2022-08-21T13:26:41;29.84;37.58
71184;DHT22;58887;51.980;4.464;2022-08-21T13:29:12;29.79;37.90
71184;DHT22;58887;51.980;4.464;2022-08-21T13:31:40;29.55;38.75
71184;DHT22;58887;51.980;4.464;2022-08-21T13:34:10;30.80;37.43
71184;DHT22;58887;51.980;4.464;2022-08-21T13:36:39;29.48;38.89
71184;DHT22;58887;51.980;4.464;2022-08-21T13:39:16;29.19;38.81
71184;DHT22;58887;51.980;4.464;2022-08-21T13:41:48;29.11;38.14
71184;DHT22;58887;51.980;4.464;2022-08-21T13:46:43;29.97;36.95
71184;DHT22;58887;51.980;4.464;2022-08-21T13:49:13;29.14;36.90
71184;DHT22;58887;51.980;4.464;2022-08-21T13:51:40;27.84;39.66
71184;DHT22;58887;51.980;4.464;2022-08-21T13:56:45;26.45;41.09
71184;DHT22;58887;51.980;4.464;2022-08-21T13:59:12;26.38;41.69
71184;DHT22;58887;51.980;4.464;2022-08-21T14:02:19;26.42;44.57
71184;DHT22;58887;51.980;4.464;2022-08-21T14:05:01;26.07;45.90
71184;DHT22;58887;51.980;4.464;2022-08-21T14:07:38;25.98;47.28
71184;DHT22;58887;51.980;4.464;2022-08-21T14:10:22;25.73;46.84
71184;DHT22;58887;51.980;4.464;2022-08-21T14:15:23;26.21;47.22
71184;DHT22;58887;51.980;4.464;2022-08-21T14:17:51;26.15;46.90
71184;DHT22;58887;51.980;4.464;2022-08-21T14:20:33;25.80;47.85
71184;DHT22;58887;51.980;4.464;2022-08-21T14:22:59;25.80;48.85
71184;DHT22;58887;51.980;4.464;2022-08-21T14:27:54;25.33;49.96
71184;DHT22;58887;51.980;4.464;2022-08-21T14:30:33;24.88;51.95
71184;DHT22;58887;51.980;4.464;2022-08-21T14:33:02;24.65;52.63
71184;DHT22;58887;51.980;4.464;2022-08-21T14:35:28;24.78;52.76
71184;DHT22;58887;51.980;4.464;2022-08-21T14:37:54;24.29;54.23
71184;DHT22;58887;51.980;4.464;2022-08-21T14:40:22;24.26;54.72
71184;DHT22;58887;51.980;4.464;2022-08-21T14:42:48;24.33;55.18
71184;DHT22;58887;51.980;4.464;2022-08-21T14:45:23;24.58;54.35
71184;DHT22;58887;51.980;4.464;2022-08-21T14:47:51;24.41;54.81
71184;DHT22;58887;51.980;4.464;2022-08-21T14:50:17;24.30;55.08
71184;DHT22;58887;51.980;4.464;2022-08-21T14:52:42;24.29;55.50
71184;DHT22;58887;51.980;4.464;2022-08-21T14:55:10;24.71;54.54
71184;DHT22;58887;51.980;4.464;2022-08-21T14:57:41;24.92;53.54
71184;DHT22;58887;51.980;4.464;2022-08-21T15:00:09;24.91;53.45
71184;DHT22;58887;51.980;4.464;2022-08-21T15:02:35;25.12;52.89
71184;DHT22;58887;51.980;4.464;2022-08-21T15:05:01;24.96;53.06
71184;DHT22;58887;51.980;4.464;2022-08-21T15:07:26;25.18;52.90
71184;DHT22;58887;51.980;4.464;2022-08-21T15:09:52;25.66;51.75
71184;DHT22;58887;51.980;4.464;2022-08-21T15:12:17;26.48;50.88
71184;DHT22;58887;51.980;4.464;2022-08-21T15:14:43;26.80;48.42
71184;DHT22;58887;51.980;4.464;2022-08-21T15:17:10;26.72;48.33
71184;DHT22;58887;51.980;4.464;2022-08-21T15:19:37;27.04;47.05
71184;DHT22;58887;51.980;4.464;2022-08-21T15:22:03;27.58;48.26
71184;DHT22;58887;51.980;4.464;2022-08-21T15:24:29;27.75;46.07
71184;DHT22;58887;51.980;4.464;2022-08-21T15:26:56;28.77;45.90
71184;DHT22;58887;51.980;4.464;2022-08-21T15:29:22;28.70;44.17
71184;DHT22;58887;51.980;4.464;2022-08-21T15:31:57;27.03;47.28
71184;DHT22;58887;51.980;4.464;2022-08-21T15:34:25;27.23;47.94
71184;DHT22;58887;51.980;4.464;2022-08-21T15:36:52;27.33;48.48
71184;DHT22;58887;51.980;4.464;2022-08-21T15:39:18;27.23;47.63
71184;DHT22;58887;51.980;4.464;2022-08-21T15:41:44;27.24;46.84
71184;DHT22;58887;51.980;4.464;2022-08-21T15:44:12;27.02;48.33
71184;DHT22;58887;51.980;4.464;2022-08-21T15:46:39;27.31;47.83
71184;DHT22;58887;51.980;4.464;2022-08-21T15:49:06;27.15;47.70
71184;DHT22;58887;51.980;4.464;2022-08-21T15:51:32;26.57;48.04
71184;DHT22;58887;51.980;4.464;2022-08-21T15:53:58;25.98;49.44
71184;DHT22;58887;51.980;4.464;2022-08-21T15:56:28;25.93;50.36
71184;DHT22;58887;51.980;4.464;2022-08-21T15:59:09;25.84;50.69
71184;DHT22;58887;51.980;4.464;2022-08-21T16:01:37;25.65;50.55
71184;DHT22;58887;51.980;4.464;2022-08-21T16:04:22;25.60;50.35
71184;DHT22;58887;51.980;4.464;2022-08-21T16:06:48;25.56;48.76
71184;DHT22;58887;51.980;4.464;2022-08-21T16:09:14;25.54;50.08
71184;DHT22;58887;51.980;4.464;2022-08-21T16:11:42;25.14;50.56
71184;DHT22;58887;51.980;4.464;2022-08-21T16:14:08;24.99;53.15
71184;DHT22;58887;51.980;4.464;2022-08-21T16:16:36;24.91;52.12
71184;DHT22;58887;51.980;4.464;2022-08-21T16:19:03;24.67;50.71
71184;DHT22;58887;51.980;4.464;2022-08-21T16:21:31;24.37;51.49
71184;DHT22;58887;51.980;4.464;2022-08-21T16:23:57;24.21;53.65
71184;DHT22;58887;51.980;4.464;2022-08-21T16:26:22;24.13;53.36
71184;DHT22;58887;51.980;4.464;2022-08-21T16:28:52;24.14;52.48
71184;DHT22;58887;51.980;4.464;2022-08-21T16:31:19;24.03;53.53
71184;DHT22;58887;51.980;4.464;2022-08-21T16:33:49;23.83;54.55
71184;DHT22;58887;51.980;4.464;2022-08-21T16:36:16;23.71;54.75
71184;DHT22;58887;51.980;4.464;2022-08-21T16:38:41;23.71;54.48
71184;DHT22;58887;51.980;4.464;2022-08-21T16:41:11;23.63;54.86
71184;DHT22;58887;51.980;4.464;2022-08-21T16:43:40;23.68;54.37
71184;DHT22;58887;51.980;4.464;2022-08-21T16:46:08;23.62;54.74
71184;DHT22;58887;51.980;4.464;2022-08-21T16:48:35;23.38;55.13
71184;DHT22;58887;51.980;4.464;2022-08-21T16:51:00;23.34;55.86
71184;DHT22;58887;51.980;4.464;2022-08-21T16:53:26;23.44;55.56
71184;DHT22;58887;51.980;4.464;2022-08-21T16:55:51;23.44;56.02
71184;DHT22;58887;51.980;4.464;2022-08-21T16:58:34;23.24;56.00
71184;DHT22;58887;51.980;4.464;2022-08-21T17:01:06;23.18;57.11
71184;DHT22;58887;51.980;4.464;2022-08-21T17:03:37;23.25;57.16
71184;DHT22;58887;51.980;4.464;2022-08-21T17:06:04;23.20;57.38
71184;DHT22;58887;51.980;4.464;2022-08-21T17:08:30;23.24;56.53
71184;DHT22;58887;51.980;4.464;2022-08-21T17:10:56;23.14;56.67
71184;DHT22;58887;51.980;4.464;2022-08-21T17:13:23;23.06;57.33
71184;DHT22;58887;51.980;4.464;2022-08-21T17:15:49;23.03;57.18
71184;DHT22;58887;51.980;4.464;2022-08-21T17:18:17;23.01;57.17
71184;DHT22;58887;51.980;4.464;2022-08-21T17:20:45;23.10;57.29
71184;DHT22;58887;51.980;4.464;2022-08-21T17:23:11;23.15;57.65